KMBS/MBS METAR and TAF weather

Enter ICAO airport designator
Station Type Date Time Source
KMBS METAR 2020/09/26 22:53 UTC NOAA

KMBS 262253Z AUTO 19008KT 10SM CLR 25/12 A2974 RMK AO2 SLP069 T02500122


Station Type Date Time Source
KMBS Decoded METAR 2020/09/26 22:53 UTC NOAA

MBS INTERNATIONAL AIRPORT, MI, United States (KMBS) 43-32N 084-05W 202M
Sep 26, 2020 - 06:53 PM EDT / 2020.09.26 2253 UTC
Wind: from the S (190 degrees) at 9 MPH (8 KT):0
Visibility: 10 mile(s):0
Sky conditions: clear
Temperature: 77.0 F (25.0 C)
Dew Point: 54.0 F (12.2 C)
Relative Humidity: 44%
Pressure (altimeter): 29.74 in. Hg (1007 hPa)
ob: KMBS 262253Z AUTO 19008KT 10SM CLR 25/12 A2974 RMK AO2 SLP069 T02500122
cycle: 23

Station Type Date Time Source
KMBS TAF 2020/09/26 18:34 UTC NOAA

TAF KMBS 261732Z 2618/2718 20013G20KT P6SM BKN250
FM270100 18013KT P6SM BKN250 WS015/24040KT
FM270800 20013G20KT P6SM OVC015
FM271400 22015G25KT P6SM BKN025
FM271700 24013G20KT P6SM BKN045

Example: see airport list